Time;durP1;ratioP1;P1;durP2;ratioP2;P2;SDS_P1;SDS_P2;PMS_P1;PMS_P2;Temp;Humidity;BMP_temperature;BMP_pressure;BME280_temperature;BME280_humidity;BME280_pressure;Samples;Min_cycle;Max_cycle;Signal;HPM_P1;HPM_P2
2021/01/09 00:00:11;;;;;;;13.93;9.60;;;1.60;99.90;;;-143.91;100.00;62816.50;4946501;28;101050;-66
2021/01/09 00:02:41;;;;;;;14.80;10.00;;;1.60;99.90;;;-143.91;100.00;62816.50;4946980;28;100583;-65
2021/01/09 00:05:09;;;;;;;13.27;9.57;;;1.60;99.90;;;-143.91;100.00;62816.50;4946305;28;100063;-67
2021/01/09 00:07:37;;;;;;;14.07;10.67;;;1.60;99.90;;;-143.91;100.00;62816.50;4947197;28;100132;-66
2021/01/09 00:10:06;;;;;;;15.23;10.80;;;1.60;99.90;;;-143.91;100.00;62816.50;4946546;28;102107;-64
2021/01/09 00:12:33;;;;;;;15.37;10.90;;;1.50;99.90;;;-143.91;100.00;62816.50;4946474;28;100640;-66
2021/01/09 00:15:01;;;;;;;15.60;10.97;;;1.50;99.90;;;-143.91;100.00;62816.50;4946475;28;100074;-65
2021/01/09 00:17:28;;;;;;;14.20;11.30;;;1.50;99.90;;;-143.91;100.00;62816.50;4947115;28;100291;-65
2021/01/09 00:19:55;;;;;;;16.20;11.90;;;1.50;99.90;;;-143.91;100.00;62816.50;4945946;28;101227;-66
2021/01/09 00:22:21;;;;;;;15.93;11.47;;;1.50;99.90;;;-143.91;100.00;62816.50;4946716;28;100789;-65
2021/01/09 00:24:48;;;;;;;16.87;11.73;;;1.40;99.90;;;-143.91;100.00;62816.50;4946477;28;100441;-66
2021/01/09 00:27:14;;;;;;;16.50;11.50;;;1.50;99.90;;;-143.91;100.00;62816.50;4946399;28;100381;-66
2021/01/09 00:29:42;;;;;;;16.00;11.80;;;1.50;99.90;;;-143.91;100.00;62816.50;4946618;28;100984;-66
2021/01/09 00:32:09;;;;;;;17.50;12.20;;;1.50;99.90;;;-143.91;100.00;62816.50;4946322;28;101143;-65
2021/01/09 00:34:36;;;;;;;16.10;11.87;;;2.00;99.90;;;-143.91;100.00;62816.50;4927834;28;100259;-66
2021/01/09 00:37:03;;;;;;;16.93;12.13;;;1.50;99.90;;;-143.91;100.00;62816.50;4946896;28;100340;-65
2021/01/09 00:39:30;;;;;;;17.70;12.23;;;1.50;99.90;;;-143.91;100.00;62816.50;4945610;28;100694;-65
2021/01/09 00:41:59;;;;;;;16.13;11.77;;;1.50;99.90;;;-143.91;100.00;62816.50;4945521;28;101041;-66
2021/01/09 00:44:26;;;;;;;16.33;11.73;;;1.60;99.90;;;-143.91;100.00;62816.50;4945905;28;100636;-64
2021/01/09 00:47:05;;;;;;;16.40;12.30;;;1.50;99.90;;;-143.91;100.00;62816.50;4945702;28;99954;-65
2021/01/09 00:49:32;;;;;;;17.10;11.37;;;1.50;99.90;;;-143.91;100.00;62816.50;4946374;28;100612;-64
2021/01/09 00:51:59;;;;;;;16.47;12.07;;;1.40;99.90;;;-143.91;100.00;62816.50;4945963;28;100354;-64
2021/01/09 00:54:33;;;;;;;17.67;12.93;;;2.10;99.90;;;-143.91;100.00;62816.50;4946334;28;100824;-65
2021/01/09 00:57:00;;;;;;;16.07;12.13;;;1.30;99.90;;;-143.91;100.00;62816.50;4938343;28;100198;-64
2021/01/09 00:59:26;;;;;;;18.43;12.70;;;1.50;99.90;;;-143.91;100.00;62816.50;4945653;28;101695;-65
2021/01/09 01:01:53;;;;;;;14.57;10.33;;;1.30;99.90;;;-143.91;100.00;62816.50;4946131;28;100756;-62
2021/01/09 01:04:20;;;;;;;18.33;12.47;;;1.40;99.90;;;-143.91;100.00;62816.50;4946071;28;100896;-64
2021/01/09 01:06:47;;;;;;;18.07;12.40;;;1.40;99.90;;;-143.91;100.00;62816.50;4945698;28;100150;-64
2021/01/09 01:09:15;;;;;;;18.13;13.30;;;1.50;99.90;;;-143.91;100.00;62816.50;4945518;28;101968;-64
2021/01/09 01:11:42;;;;;;;17.77;12.93;;;1.40;99.90;;;-143.91;100.00;62816.50;4945262;28;101175;-65
2021/01/09 01:14:09;;;;;;;17.97;12.87;;;2.20;99.90;;;-143.91;100.00;62816.50;4946204;28;100041;-64
2021/01/09 01:16:35;;;;;;;19.40;13.97;;;1.40;99.90;;;-143.91;100.00;62816.50;4945823;28;100385;-64
2021/01/09 01:19:02;;;;;;;16.90;11.63;;;1.50;99.90;;;-143.91;100.00;62816.50;4946113;28;102180;-63
2021/01/09 01:21:28;;;;;;;17.73;12.60;;;1.40;99.90;;;-143.91;100.00;62816.50;4945792;28;100131;-64
2021/01/09 01:23:55;;;;;;;18.27;11.87;;;1.40;99.90;;;-143.91;100.00;62816.50;4949438;28;100153;-64
2021/01/09 01:26:22;;;;;;;19.70;13.57;;;1.30;99.90;;;-143.91;100.00;62816.50;4949563;28;100050;-63
2021/01/09 01:28:49;;;;;;;17.23;12.60;;;1.30;99.90;;;-143.91;100.00;62816.50;4945431;28;100977;-63
2021/01/09 01:31:15;;;;;;;17.07;12.33;;;1.30;99.90;;;-143.91;100.00;62816.50;4944983;28;101450;-63
2021/01/09 01:33:42;;;;;;;19.43;13.03;;;1.30;99.90;;;-143.91;100.00;62816.50;4944931;28;100485;-62
2021/01/09 01:36:09;;;;;;;17.77;12.43;;;1.50;99.90;;;-143.91;100.00;62816.50;4944859;28;100197;-63
2021/01/09 01:38:36;;;;;;;19.87;13.93;;;1.40;99.90;;;-143.91;100.00;62816.50;4945950;28;100955;-64
2021/01/09 01:41:04;;;;;;;18.10;12.40;;;1.40;99.90;;;-143.91;100.00;62816.50;4945057;28;100507;-63
2021/01/09 01:43:31;;;;;;;16.60;11.80;;;1.40;99.90;;;-143.91;100.00;62816.50;4945826;28;100188;-64
2021/01/09 01:45:59;;;;;;;17.57;12.40;;;1.40;99.90;;;-143.91;100.00;62816.50;4945175;28;100622;-65
2021/01/09 01:48:25;;;;;;;19.13;13.43;;;1.30;99.90;;;-143.91;100.00;62816.50;4944439;28;101332;-64
2021/01/09 01:50:52;;;;;;;17.07;12.93;;;2.30;99.90;;;-143.91;100.00;62816.50;4944904;28;101347;-65
2021/01/09 01:53:19;;;;;;;17.63;12.83;;;1.40;99.90;;;-143.91;100.00;62816.50;4946256;28;100010;-63
2021/01/09 01:55:46;;;;;;;17.90;11.13;;;2.70;99.90;;;-143.91;100.00;62816.50;4945142;28;100110;-64
2021/01/09 01:58:12;;;;;;;17.30;12.23;;;1.50;99.90;;;-143.91;100.00;62816.50;4944780;28;101013;-66
2021/01/09 02:00:45;;;;;;;18.53;13.23;;;1.40;99.90;;;-143.91;100.00;62816.50;4945089;28;100238;-65
2021/01/09 02:03:12;;;;;;;17.90;12.93;;;1.30;99.90;;;-143.91;100.00;62816.50;4945288;28;100154;-63
2021/01/09 02:05:42;;;;;;;15.87;11.50;;;1.40;99.90;;;-143.91;100.00;62816.50;4944286;28;100334;-63
2021/01/09 02:08:12;;;;;;;16.63;12.40;;;1.40;99.90;;;-143.91;100.00;62816.50;4944826;28;101801;-65
2021/01/09 02:10:45;;;;;;;17.23;12.90;;;1.30;99.90;;;-143.91;100.00;62816.50;4944411;28;100325;-65
2021/01/09 02:13:20;;;;;;;15.63;11.33;;;1.40;99.90;;;-143.91;100.00;62816.50;4945259;28;100427;-66
2021/01/09 02:15:50;;;;;;;18.20;12.47;;;1.40;99.90;;;-143.91;100.00;62816.50;4944782;28;100095;-64
2021/01/09 02:18:19;;;;;;;19.10;13.00;;;2.10;99.90;;;-143.91;100.00;62816.50;4944554;28;101265;-64
2021/01/09 02:20:49;;;;;;;92.73;18.70;;;1.40;99.90;;;-143.91;100.00;62816.50;4945173;28;100723;-65
2021/01/09 02:23:17;;;;;;;17.10;11.80;;;1.40;99.90;;;-143.91;100.00;62816.50;4944107;28;100219;-65
2021/01/09 02:25:43;;;;;;;18.83;12.57;;;1.40;99.90;;;-143.91;100.00;62816.50;4944776;28;100385;-65
2021/01/09 02:28:10;;;;;;;15.87;11.23;;;1.30;99.90;;;-143.91;100.00;62816.50;4945028;28;100912;-64
2021/01/09 02:30:40;;;;;;;17.97;12.17;;;1.50;99.90;;;-143.91;100.00;62816.50;4944787;28;100307;-65
2021/01/09 02:33:10;;;;;;;16.17;11.90;;;1.30;99.90;;;-143.91;100.00;62816.50;4944881;28;100482;-65
2021/01/09 02:35:39;;;;;;;18.63;12.33;;;1.40;99.90;;;-143.91;100.00;62816.50;4945168;28;100137;-64
2021/01/09 02:38:06;;;;;;;20.07;12.87;;;1.30;99.90;;;-143.91;100.00;62816.50;4944625;28;101482;-65
2021/01/09 02:40:40;;;;;;;18.67;12.33;;;1.20;99.90;;;-143.91;100.00;62816.50;4944752;28;100392;-64
2021/01/09 02:43:10;;;;;;;16.57;11.57;;;1.20;99.90;;;-143.91;100.00;62816.50;4945008;28;100270;-64
2021/01/09 02:45:38;;;;;;;16.87;13.03;;;2.20;99.90;;;-143.91;100.00;62816.50;4926040;28;100046;-65
2021/01/09 02:48:05;;;;;;;17.93;13.03;;;1.20;99.90;;;-143.91;100.00;62816.50;4943804;28;100680;-64
2021/01/09 02:50:32;;;;;;;18.63;12.77;;;1.20;99.90;;;-143.91;100.00;62816.50;4944244;28;100454;-64
2021/01/09 02:52:59;;;;;;;43.90;15.20;;;1.20;99.90;;;-143.91;100.00;62816.50;4945012;28;100065;-64
2021/01/09 02:55:26;;;;;;;20.23;12.63;;;1.20;99.90;;;-143.91;100.00;62816.50;4945186;28;100278;-64
2021/01/09 02:57:53;;;;;;;19.80;12.07;;;1.30;99.90;;;-143.91;100.00;62816.50;4944606;28;101660;-64
2021/01/09 03:00:20;;;;;;;20.10;13.27;;;1.30;99.90;;;-143.91;100.00;62816.50;4943422;28;101325;-66
2021/01/09 03:02:47;;;;;;;20.03;13.20;;;1.20;99.90;;;-143.91;100.00;62816.50;4925873;28;100290;-64
2021/01/09 03:05:13;;;;;;;17.93;12.17;;;1.20;99.90;;;-143.91;100.00;62816.50;4944133;28;99971;-65
2021/01/09 03:07:40;;;;;;;21.43;14.23;;;1.20;99.90;;;-143.91;100.00;62816.50;4943955;28;101707;-64
2021/01/09 03:10:07;;;;;;;19.23;13.00;;;1.30;99.90;;;-143.91;100.00;62816.50;4947199;28;100641;-62
2021/01/09 03:12:34;;;;;;;19.87;12.23;;;1.20;99.90;;;-143.91;100.00;62816.50;4946906;28;100289;-62
2021/01/09 03:15:01;;;;;;;18.77;12.73;;;1.30;99.90;;;-143.91;100.00;62816.50;4947641;28;100073;-65
2021/01/09 03:17:28;;;;;;;20.37;13.13;;;2.20;99.90;;;-143.91;100.00;62816.50;4947891;28;100962;-64
2021/01/09 03:19:54;;;;;;;18.43;12.17;;;1.20;99.90;;;-143.91;100.00;62816.50;4948043;28;100776;-64
2021/01/09 03:22:21;;;;;;;23.03;14.03;;;1.10;99.90;;;-143.91;100.00;62816.50;4947353;28;100328;-65
2021/01/09 03:24:48;;;;;;;24.57;14.17;;;1.10;99.90;;;-143.91;100.00;62816.50;4947580;28;100524;-63
2021/01/09 03:27:15;;;;;;;21.97;13.87;;;1.10;99.90;;;-143.91;100.00;62816.50;4947109;28;100983;-65
2021/01/09 03:29:41;;;;;;;22.03;14.37;;;1.30;99.90;;;-143.91;100.00;62816.50;4929102;28;101641;-65
2021/01/09 03:32:08;;;;;;;21.17;13.47;;;1.00;99.90;;;-143.91;100.00;62816.50;4947915;28;100158;-64
2021/01/09 03:34:35;;;;;;;18.43;11.63;;;2.00;99.90;;;-143.91;100.00;62816.50;4947992;28;100208;-64
2021/01/09 03:37:01;;;;;;;23.47;13.77;;;1.20;99.90;;;-143.91;100.00;62816.50;4938897;28;101538;-64
2021/01/09 03:39:28;;;;;;;19.73;12.57;;;1.20;99.90;;;-143.91;100.00;62816.50;4946938;28;100130;-65
2021/01/09 03:41:54;;;;;;;21.13;12.87;;;2.20;99.90;;;-143.91;100.00;62816.50;4947662;28;100606;-63
2021/01/09 03:44:21;;;;;;;22.13;13.57;;;1.10;99.90;;;-143.91;100.00;62816.50;4947582;28;100167;-65
2021/01/09 03:46:47;;;;;;;21.33;14.37;;;2.00;99.90;;;-143.91;100.00;62816.50;4946746;28;101197;-65
2021/01/09 03:49:15;;;;;;;18.37;12.77;;;1.20;99.90;;;-143.91;100.00;62816.50;4946870;28;100911;-65
2021/01/09 03:51:41;;;;;;;21.63;13.57;;;1.70;99.90;;;-143.91;100.00;62816.50;4946864;28;100296;-66
2021/01/09 03:54:08;;;;;;;24.70;13.70;;;2.30;99.90;;;-143.91;100.00;62816.50;4947510;28;100439;-64
2021/01/09 03:56:34;;;;;;;18.93;12.43;;;1.20;99.90;;;-143.91;100.00;62816.50;4946834;28;101393;-64
2021/01/09 03:59:01;;;;;;;22.20;13.80;;;1.10;99.90;;;-143.91;100.00;62816.50;4939204;28;100793;-65
2021/01/09 04:01:27;;;;;;;22.73;14.60;;;1.10;99.90;;;-143.91;100.00;62816.50;4947207;28;100066;-65
2021/01/09 04:03:54;;;;;;;22.73;13.93;;;1.10;99.90;;;-143.91;100.00;62816.50;4947227;28;100196;-64
2021/01/09 04:06:21;;;;;;;23.47;14.37;;;1.20;99.90;;;-143.91;100.00;62816.50;4946848;28;100973;-65
2021/01/09 04:08:48;;;;;;;21.80;13.97;;;1.10;99.90;;;-143.91;100.00;62816.50;4947230;28;100560;-65
2021/01/09 04:11:14;;;;;;;23.50;14.90;;;1.20;99.90;;;-143.91;100.00;62816.50;4946179;28;100233;-66
2021/01/09 04:13:41;;;;;;;28.83;15.53;;;1.20;99.90;;;-143.91;100.00;62816.50;4946883;28;100293;-62
2021/01/09 04:16:08;;;;;;;24.90;15.33;;;2.10;99.90;;;-143.91;100.00;62816.50;4946361;28;101761;-64
2021/01/09 04:18:34;;;;;;;21.53;13.40;;;1.10;99.90;;;-143.91;100.00;62816.50;4947171;28;100587;-66
2021/01/09 04:21:01;;;;;;;25.57;14.87;;;2.10;99.90;;;-143.91;100.00;62816.50;4946611;28;100150;-64
2021/01/09 04:23:28;;;;;;;25.73;15.77;;;1.10;99.90;;;-143.91;100.00;62816.50;4947014;28;100308;-67
2021/01/09 04:26:12;;;;;;;24.23;16.03;;;1.20;99.90;;;-143.91;100.00;62816.50;4945787;28;100854;-65
2021/01/09 04:28:38;;;;;;;26.03;15.83;;;1.10;99.90;;;-143.91;100.00;62816.50;4946287;28;100310;-65
2021/01/09 04:31:05;;;;;;;91.07;22.00;;;1.20;99.90;;;-143.91;100.00;62816.50;4946339;28;99942;-66
2021/01/09 04:33:31;;;;;;;28.30;17.20;;;1.10;99.90;;;-143.91;100.00;62816.50;4946224;28;100075;-65
2021/01/09 04:35:58;;;;;;;28.00;15.80;;;1.20;99.90;;;-143.91;100.00;62816.50;4945724;28;99957;-63
2021/01/09 04:38:24;;;;;;;27.07;15.87;;;1.10;99.90;;;-143.91;100.00;62816.50;4945707;28;101174;-64
2021/01/09 04:40:52;;;;;;;25.20;15.50;;;1.00;99.90;;;-143.91;100.00;62816.50;4945938;28;100177;-65
2021/01/09 04:43:19;;;;;;;263.60;38.80;;;1.00;99.90;;;-143.91;100.00;62816.50;4947601;28;100181;-65
2021/01/09 04:45:46;;;;;;;212.80;29.83;;;0.70;99.90;;;-143.91;100.00;62816.50;4946316;28;100947;-63
2021/01/09 04:48:14;;;;;;;27.87;15.37;;;0.70;99.90;;;-143.91;100.00;62816.50;4946709;28;100705;-65
2021/01/09 04:50:41;;;;;;;29.60;16.83;;;0.70;99.90;;;-143.91;100.00;62816.50;4946534;28;100366;-65
2021/01/09 04:53:08;;;;;;;30.93;16.87;;;0.60;99.90;;;-143.91;100.00;62816.50;4946642;28;100235;-64
2021/01/09 04:55:35;;;;;;;31.53;16.87;;;0.50;99.90;;;-143.91;100.00;62816.50;4947080;28;101024;-64
2021/01/09 04:58:03;;;;;;;244.47;37.87;;;0.50;99.90;;;-143.91;100.00;62816.50;4948524;28;100468;-64
2021/01/09 05:00:30;;;;;;;80.43;21.33;;;0.50;99.90;;;-143.91;100.00;62816.50;4947563;28;100459;-66
2021/01/09 05:02:57;;;;;;;28.87;16.43;;;0.50;99.90;;;-143.91;100.00;62816.50;4946564;28;100115;-66
2021/01/09 05:05:24;;;;;;;27.93;17.60;;;0.50;99.90;;;-143.91;100.00;62816.50;4945387;28;101503;-66
2021/01/09 05:07:50;;;;;;;29.97;16.63;;;0.40;99.90;;;-143.91;100.00;62816.50;4945861;28;100694;-65
2021/01/09 05:10:17;;;;;;;30.90;16.90;;;0.50;99.90;;;-143.91;100.00;62816.50;4945689;28;100600;-63
2021/01/09 05:12:43;;;;;;;176.93;28.10;;;0.40;99.90;;;-143.91;100.00;62816.50;4945541;28;100279;-66
2021/01/09 05:15:12;;;;;;;27.20;16.53;;;0.40;99.90;;;-143.91;100.00;62816.50;4944904;28;101008;-65
2021/01/09 05:17:39;;;;;;;30.60;17.70;;;0.40;99.90;;;-143.91;100.00;62816.50;4945925;28;100581;-66
2021/01/09 05:20:07;;;;;;;28.80;17.87;;;0.30;99.90;;;-143.91;100.00;62816.50;4945928;28;100294;-64
2021/01/09 05:22:37;;;;;;;27.27;16.93;;;-0.50;99.90;;;-143.91;100.00;62816.50;4946315;28;100105;-64
2021/01/09 05:25:05;;;;;;;37.10;18.30;;;1.60;99.90;;;-143.91;100.00;62816.50;4945630;28;100686;-63
2021/01/09 05:27:33;;;;;;;102.97;22.77;;;0.40;99.90;;;-143.91;100.00;62816.50;4946311;28;101093;-66
2021/01/09 05:30:00;;;;;;;30.13;17.23;;;0.30;99.90;;;-143.91;100.00;62816.50;4945733;28;100088;-65
2021/01/09 05:32:27;;;;;;;27.37;15.17;;;0.40;99.90;;;-143.91;100.00;62816.50;4945626;28;100127;-64
2021/01/09 05:34:54;;;;;;;30.87;17.23;;;-0.60;99.90;;;-143.91;100.00;62816.50;4944402;28;101545;-64
2021/01/09 05:37:23;;;;;;;26.87;16.50;;;0.20;99.90;;;-143.91;100.00;62816.50;4945230;28;101472;-65
2021/01/09 05:39:55;;;;;;;361.47;46.73;;;0.40;99.90;;;-143.91;100.00;62816.50;4944906;28;100806;-63
2021/01/09 05:42:24;;;;;;;238.97;37.57;;;0.10;99.90;;;-143.91;100.00;62816.50;4944901;28;100266;-63
2021/01/09 05:44:55;;;;;;;30.43;16.97;;;0.30;99.90;;;-143.91;100.00;62816.50;4944633;28;101385;-63
2021/01/09 05:47:24;;;;;;;29.13;16.43;;;0.30;99.90;;;-143.91;100.00;62816.50;4944721;28;100509;-63
2021/01/09 05:49:52;;;;;;;32.43;16.80;;;0.30;99.90;;;-143.91;100.00;62816.50;4945510;28;100328;-64
2021/01/09 05:52:18;;;;;;;31.23;17.13;;;0.10;99.90;;;-143.91;100.00;62816.50;4945305;28;100282;-65
2021/01/09 05:54:45;;;;;;;30.97;16.20;;;0.30;99.90;;;-143.91;100.00;62816.50;4944959;28;101001;-64
2021/01/09 05:57:17;;;;;;;48.20;19.70;;;0.30;99.90;;;-143.91;100.00;62816.50;4945549;28;100727;-64
2021/01/09 05:59:44;;;;;;;30.97;16.43;;;0.40;99.90;;;-143.91;100.00;62816.50;4945141;28;99995;-66
2021/01/09 06:02:12;;;;;;;25.73;14.90;;;0.30;99.90;;;-143.91;100.00;62816.50;4944560;28;99966;-66
2021/01/09 06:04:44;;;;;;;28.70;17.13;;;0.20;99.90;;;-143.91;100.00;62816.50;4944798;28;101790;-66
2021/01/09 06:07:19;;;;;;;29.87;17.77;;;0.40;99.90;;;-143.91;100.00;62816.50;4945196;28;100661;-66
2021/01/09 06:09:56;;;;;;;400.10;54.27;;;0.40;99.90;;;-143.91;100.00;62816.50;4944876;28;100046;-64
2021/01/09 06:12:23;;;;;;;279.83;42.37;;;0.50;99.90;;;-143.91;100.00;62816.50;4925833;28;100271;-65
2021/01/09 06:14:50;;;;;;;28.77;15.20;;;0.50;99.90;;;-143.91;100.00;62816.50;4944926;28;100535;-64
2021/01/09 06:17:19;;;;;;;28.07;16.50;;;0.50;99.90;;;-143.91;100.00;62816.50;4944330;28;100850;-63
2021/01/09 06:19:47;;;;;;;27.97;15.63;;;0.00;99.90;;;-143.91;100.00;62816.50;4944965;28;100080;-64
2021/01/09 06:22:15;;;;;;;28.73;14.87;;;0.60;99.90;;;-143.91;100.00;62816.50;4944733;28;100370;-63
2021/01/09 06:24:42;;;;;;;116.73;24.63;;;0.50;99.90;;;-143.91;100.00;62816.50;4944548;28;101350;-64
2021/01/09 06:27:18;;;;;;;276.13;41.20;;;1.70;99.90;;;-143.91;100.00;62816.50;4944347;28;101164;-63
2021/01/09 06:29:49;;;;;;;26.07;15.43;;;0.50;99.90;;;-143.91;100.00;62816.50;4944434;28;100252;-64
2021/01/09 06:32:33;;;;;;;25.57;15.43;;;1.10;99.90;;;-143.91;100.00;62816.50;4945139;28;100154;-64
2021/01/09 06:35:03;;;;;;;26.30;14.83;;;0.50;99.90;;;-143.91;100.00;62816.50;4944386;28;101306;-64
2021/01/09 06:37:31;;;;;;;26.57;15.97;;;0.50;99.90;;;-143.91;100.00;62816.50;4944485;28;100960;-65
2021/01/09 06:39:58;;;;;;;298.13;46.23;;;0.60;99.90;;;-143.91;100.00;62816.50;4944599;28;100121;-64
2021/01/09 06:42:25;;;;;;;77.30;19.83;;;0.60;99.90;;;-143.91;100.00;62816.50;4944328;28;100144;-63
2021/01/09 06:44:53;;;;;;;26.23;15.23;;;0.60;99.90;;;-143.91;100.00;62816.50;4944798;28;100644;-65
2021/01/09 06:47:28;;;;;;;24.80;15.60;;;1.80;99.90;;;-143.91;100.00;62816.50;4943963;28;100522;-64
2021/01/09 06:49:55;;;;;;;27.43;16.23;;;0.80;99.90;;;-143.91;100.00;62816.50;4924902;28;100440;-64
2021/01/09 06:52:23;;;;;;;27.37;15.93;;;0.70;99.90;;;-143.91;100.00;62816.50;4925335;28;99975;-66
2021/01/09 06:54:50;;;;;;;72.47;20.00;;;0.80;99.90;;;-143.91;100.00;62816.50;4924347;28;100887;-63
2021/01/09 06:57:19;;;;;;;139.67;26.20;;;1.90;99.90;;;-143.91;100.00;62816.50;4924119;28;100742;-66
2021/01/09 06:59:48;;;;;;;25.10;16.30;;;0.80;99.90;;;-143.91;100.00;62816.50;4921999;28;100005;-66
2021/01/09 07:02:18;;;;;;;28.83;15.83;;;0.70;99.90;;;-143.91;100.00;62816.50;4904077;28;100132;-64
2021/01/09 07:04:58;;;;;;;27.30;15.57;;;0.90;99.90;;;-143.91;100.00;62816.50;4921419;28;101394;-65
2021/01/09 07:07:36;;;;;;;26.03;14.20;;;0.80;99.90;;;-143.91;100.00;62816.50;4921398;28;100370;-65
2021/01/09 07:10:18;;;;;;;21.77;14.90;;;0.90;99.90;;;-143.91;100.00;62816.50;4903455;28;100393;-65
2021/01/09 07:12:56;;;;;;;159.90;27.73;;;0.70;99.90;;;-143.91;100.00;62816.50;4921904;28;100307;-64
2021/01/09 07:15:24;;;;;;;25.13;15.30;;;0.90;99.90;;;-143.91;100.00;62816.50;4921732;28;101767;-64
2021/01/09 07:17:55;;;;;;;22.87;14.70;;;0.90;99.90;;;-143.91;100.00;62816.50;4942129;28;100564;-64
2021/01/09 07:20:24;;;;;;;21.40;15.17;;;0.90;99.90;;;-143.91;100.00;62816.50;4941322;28;99961;-65
2021/01/09 07:23:00;;;;;;;22.17;15.37;;;0.90;99.90;;;-143.91;100.00;62816.50;4940059;28;100601;-61
2021/01/09 07:25:38;;;;;;;21.70;13.77;;;0.80;99.90;;;-143.91;100.00;62816.50;4941450;28;100973;-62
2021/01/09 07:28:10;;;;;;;170.03;26.67;;;0.90;99.90;;;-143.91;100.00;62816.50;4941607;28;100691;-65
2021/01/09 07:30:37;;;;;;;24.53;13.63;;;0.90;99.90;;;-143.91;100.00;62816.50;4940812;28;100009;-63
2021/01/09 07:33:09;;;;;;;22.67;14.47;;;1.00;99.90;;;-143.91;100.00;62816.50;4941755;28;100265;-62
2021/01/09 07:35:38;;;;;;;22.10;14.73;;;0.90;99.90;;;-143.91;100.00;62816.50;4940068;28;101335;-63
2021/01/09 07:38:06;;;;;;;21.87;14.20;;;0.90;99.90;;;-143.91;100.00;62816.50;4941945;28;102179;-64
2021/01/09 07:40:54;;;;;;;18.33;13.13;;;1.00;99.90;;;-143.91;100.00;62816.50;4941328;28;100290;-64
2021/01/09 07:43:39;;;;;;;91.40;18.53;;;1.00;99.90;;;-143.91;100.00;62816.50;4941978;28;100107;-63
2021/01/09 07:46:24;;;;;;;70.20;16.50;;;1.00;99.90;;;-143.91;100.00;62816.50;4921154;28;101056;-63
2021/01/09 07:48:58;;;;;;;19.67;13.03;;;1.00;99.90;;;-143.91;100.00;62816.50;4921338;28;100241;-64
2021/01/09 07:51:53;;;;;;;25.03;15.20;;;0.90;99.90;;;-143.91;100.00;62816.50;4921524;28;100073;-62
2021/01/09 07:54:30;;;;;;;20.67;14.33;;;1.10;99.90;;;-143.91;100.00;62816.50;4923556;28;99965;-62
2021/01/09 07:56:57;;;;;;;35.17;16.33;;;1.10;99.90;;;-143.91;100.00;62816.50;4925227;28;101692;-64
2021/01/09 07:59:24;;;;;;;40.23;16.10;;;1.40;99.90;;;-143.91;100.00;62816.50;4939837;28;100447;-64
2021/01/09 08:01:51;;;;;;;23.07;15.07;;;1.00;99.90;;;-143.91;100.00;62816.50;4944541;28;100135;-63
2021/01/09 08:04:17;;;;;;;20.73;12.73;;;1.00;99.90;;;-143.91;100.00;62816.50;4945427;28;100295;-63
2021/01/09 08:06:44;;;;;;;21.83;14.03;;;1.10;99.90;;;-143.91;100.00;62816.50;4943704;28;100903;-64
2021/01/09 08:09:10;;;;;;;25.10;16.43;;;1.10;99.90;;;-143.91;100.00;62816.50;4944744;28;100491;-64
2021/01/09 08:11:41;;;;;;;21.73;14.07;;;1.10;99.90;;;-143.91;100.00;62816.50;4943711;28;100468;-65
2021/01/09 08:14:09;;;;;;;58.47;16.77;;;1.20;99.90;;;-143.91;100.00;62816.50;4945590;28;100413;-66
2021/01/09 08:16:35;;;;;;;20.33;13.50;;;1.10;99.90;;;-143.91;100.00;62816.50;4942932;28;101663;-66
2021/01/09 08:19:15;;;;;;;19.83;13.60;;;1.20;99.90;;;-143.91;100.00;62816.50;4934730;28;101158;-65
2021/01/09 08:21:42;;;;;;;21.97;13.83;;;1.70;99.90;;;-143.91;100.00;62816.50;4944782;28;100051;-63
2021/01/09 08:24:09;;;;;;;58.73;17.20;;;1.20;99.90;;;-143.91;100.00;62816.50;4945217;28;100067;-67
2021/01/09 08:26:35;;;;;;;21.97;14.37;;;1.30;99.90;;;-143.91;100.00;62816.50;4944947;28;101083;-66
2021/01/09 08:29:03;;;;;;;19.67;13.37;;;1.40;99.90;;;-143.91;100.00;62816.50;4944983;28;100680;-65
2021/01/09 08:31:32;;;;;;;21.50;14.63;;;1.30;99.90;;;-143.91;100.00;62816.50;4943779;28;100035;-64
2021/01/09 08:33:59;;;;;;;18.00;11.93;;;1.30;99.90;;;-143.91;100.00;62816.50;4943985;28;100233;-67
2021/01/09 08:36:26;;;;;;;21.00;12.90;;;1.20;99.90;;;-143.91;100.00;62816.50;4943221;28;100681;-66
2021/01/09 08:38:55;;;;;;;190.90;29.50;;;1.20;99.90;;;-143.91;100.00;62816.50;4943566;28;100980;-65
2021/01/09 08:41:21;;;;;;;24.37;13.43;;;2.30;99.90;;;-143.91;100.00;62816.50;4943644;28;100164;-65
2021/01/09 08:43:48;;;;;;;19.30;13.20;;;1.40;99.90;;;-143.91;100.00;62816.50;4943940;28;100244;-65
2021/01/09 08:46:14;;;;;;;19.17;12.67;;;1.40;99.90;;;-143.91;100.00;62816.50;4943386;28;101864;-66
2021/01/09 08:48:42;;;;;;;17.13;12.03;;;2.30;99.90;;;-143.91;100.00;62816.50;4943491;28;101316;-64
2021/01/09 08:51:10;;;;;;;17.60;12.57;;;1.40;99.90;;;-143.91;100.00;62816.50;4944093;28;100099;-64
2021/01/09 08:53:45;;;;;;;18.33;12.87;;;1.40;99.90;;;-143.91;100.00;62816.50;4944447;28;100441;-64
2021/01/09 08:56:12;;;;;;;18.17;11.57;;;1.50;99.90;;;-143.91;100.00;62816.50;4944086;28;101009;-65
2021/01/09 08:58:40;;;;;;;19.90;12.17;;;1.40;99.90;;;-143.91;100.00;62816.50;4943895;28;100668;-65
2021/01/09 09:01:08;;;;;;;123.67;22.40;;;1.60;99.90;;;-143.91;100.00;62816.50;4942461;28;100087;-65
2021/01/09 09:03:44;;;;;;;21.83;13.77;;;1.50;99.90;;;-143.91;100.00;62816.50;4943855;28;100009;-65
2021/01/09 09:06:15;;;;;;;21.20;14.63;;;2.00;99.90;;;-143.91;100.00;62816.50;4941842;28;102283;-65
2021/01/09 09:08:42;;;;;;;20.17;13.83;;;1.50;99.90;;;-143.91;100.00;62816.50;4943162;28;100561;-64
2021/01/09 09:11:10;;;;;;;21.80;14.53;;;1.50;99.90;;;-143.91;100.00;62816.50;4943188;28;100186;-65
2021/01/09 09:13:36;;;;;;;20.73;13.77;;;2.20;99.90;;;-143.91;100.00;62816.50;4923401;28;100203;-65
2021/01/09 09:16:18;;;;;;;19.13;13.53;;;1.70;99.90;;;-143.91;100.00;62816.50;4923530;28;100737;-65
2021/01/09 09:18:45;;;;;;;20.23;14.40;;;1.50;99.90;;;-143.91;100.00;62816.50;4923691;28;100567;-64
2021/01/09 09:21:12;;;;;;;21.70;16.10;;;1.70;99.90;;;-143.91;100.00;62816.50;4922478;28;100402;-64
2021/01/09 09:23:39;;;;;;;21.23;14.63;;;1.60;99.90;;;-143.91;100.00;62816.50;4924030;28;100164;-63
2021/01/09 09:26:08;;;;;;;23.40;13.93;;;1.80;99.90;;;-143.91;100.00;62816.50;4922401;28;100953;-64
2021/01/09 09:28:50;;;;;;;22.50;14.20;;;2.90;99.90;;;-143.91;100.00;62816.50;4923846;28;100974;-65
2021/01/09 09:31:23;;;;;;;22.27;14.50;;;1.70;99.90;;;-143.91;100.00;62816.50;4915181;28;100353;-63
2021/01/09 09:34:02;;;;;;;27.43;16.07;;;1.60;99.90;;;-143.91;100.00;62816.50;4904698;28;100132;-64
2021/01/09 09:36:31;;;;;;;26.17;16.10;;;1.70;99.90;;;-143.91;100.00;62816.50;4914110;28;101316;-65
2021/01/09 09:38:58;;;;;;;21.30;14.43;;;2.30;99.90;;;-143.91;100.00;62816.50;4923339;28;101586;-65
2021/01/09 09:41:25;;;;;;;22.53;14.53;;;3.00;99.90;;;-143.91;100.00;62816.50;4923395;28;100371;-66
2021/01/09 09:43:57;;;;;;;21.53;15.07;;;1.70;99.90;;;-143.91;100.00;62816.50;4923543;28;100304;-64
2021/01/09 09:46:24;;;;;;;20.57;13.60;;;1.70;99.90;;;-143.91;100.00;62816.50;4922666;28;101050;-63
2021/01/09 09:48:51;;;;;;;17.40;13.23;;;1.90;99.90;;;-143.91;100.00;62816.50;4923223;28;100518;-64
2021/01/09 09:51:18;;;;;;;18.93;13.40;;;1.90;99.90;;;-143.91;100.00;62816.50;4922203;28;100389;-63
2021/01/09 09:53:52;;;;;;;18.20;13.60;;;1.80;99.90;;;-143.91;100.00;62816.50;4923044;28;100123;-64